»·PEaware :: KEN48 KBFI-KOLM

KEN48 :: KBFI-KOLM

FLIGHT INFORMATION

Flight Status: Arrived
Operator: Unknown
More flights by this operator :: More flights under this callsign
Pilot: Skye D. (10623)
Aircraft: CESSNA 208 CARAVAN
(C208)
More flights by this aircraft type
Origin: KBFI Boeing Field/King Co Intl
United States
Destination: KOLM Olympia
United States
More flights between these airports :: More routes between these airports
Route: HOOME
File this flight plan on PilotEdge
Remarks:
Altitude:
(Current/Filed)
4,000ft
Speed:
(Current/Filed)
190kts
Departed: 02-Feb-18 09:22 AM
Arrived: 02-Feb-18 09:58 AM
Distance/Time
Traveled:
41nm/0:36
Distance/Time
To Go:
Arrived

Flight Plot

Page will automatically refresh every two minutes.

Flight plan parsing failed; only flown route is shown


Map Options




Map Legend


Flown Route
Filed Route
Departure Airport
Arrival Airport
Navaid (VOR, NDB)
Fix

Horizontal Profiles

Position Reports

Time Latitude Longitude Heading Altitude Ground
Speed
02-Feb-18 09:09 47.524396 -122.295076 330 25ft 0kts
02-Feb-18 09:10 47.524396 -122.295076 330 25ft 0kts
02-Feb-18 09:11 47.524396 -122.295076 330 25ft 0kts
02-Feb-18 09:12 47.524396 -122.295076 330 25ft 0kts
02-Feb-18 09:13 47.524396 -122.295076 330 25ft 0kts
02-Feb-18 09:14 47.524396 -122.295076 330 25ft 0kts
02-Feb-18 09:15 47.524396 -122.295076 330 25ft 0kts
02-Feb-18 09:16 47.524396 -122.295076 330 25ft 0kts
02-Feb-18 09:17 47.524396 -122.295076 330 25ft 0kts
02-Feb-18 09:18 47.524396 -122.295076 330 25ft 0kts
02-Feb-18 09:19 47.524396 -122.295076 330 25ft 0kts
02-Feb-18 09:20 47.524396 -122.295076 330 25ft 0kts
02-Feb-18 09:21 47.524097 -122.295319 232 25ft 0kts
02-Feb-18 09:22 47.524495 -122.296230 327 25ft 18kts
02-Feb-18 09:23 47.529955 -122.299438 328 25ft 28kts
02-Feb-18 09:24 47.534557 -122.303312 330 26ft 21kts
02-Feb-18 09:25 47.538305 -122.306797 327 25ft 20kts
02-Feb-18 09:26 47.540978 -122.309898 238 25ft 6kts
02-Feb-18 09:27 47.540874 -122.310118 234 25ft 2kts
02-Feb-18 09:28 47.537036 -122.308500 152 25ft 70kts
02-Feb-18 09:29 47.522003 -122.293098 161 777ft 85kts
02-Feb-18 09:30 47.505968 -122.275750 160 1581ft 92kts
02-Feb-18 09:31 47.490479 -122.273456 248 2390ft 70kts
02-Feb-18 09:32 47.483413 -122.294645 245 3249ft 66kts
02-Feb-18 09:33 47.476798 -122.314075 247 3967ft 69kts
02-Feb-18 09:34 47.467846 -122.340428 246 3998ft 89kts
02-Feb-18 09:35 47.458141 -122.368650 246 3997ft 87kts
02-Feb-18 09:36 47.447734 -122.399178 246 3998ft 100kts
02-Feb-18 09:37 47.436541 -122.431909 244 3997ft 103kts
02-Feb-18 09:38 47.425198 -122.464941 244 3997ft 104kts
02-Feb-18 09:39 47.413594 -122.498763 244 3997ft 104kts
02-Feb-18 09:40 47.401949 -122.532608 244 3997ft 104kts
02-Feb-18 09:41 47.390137 -122.566847 244 4028ft 102kts
02-Feb-18 09:42 47.378018 -122.602048 243 3979ft 105kts
02-Feb-18 09:43 47.365862 -122.637121 243 3697ft 112kts
02-Feb-18 09:44 47.351423 -122.678774 243 2881ft 117kts
02-Feb-18 09:45 47.338685 -122.716067 241 2881ft 100kts
02-Feb-18 09:46 47.326835 -122.750216 241 2883ft 99kts
02-Feb-18 09:47 47.314723 -122.785110 240 2881ft 99kts
02-Feb-18 09:48 47.297387 -122.812907 212 2880ft 99kts
02-Feb-18 09:49 47.271355 -122.823803 199 2881ft 103kts
02-Feb-18 09:50 47.243046 -122.824502 198 2881ft 103kts
02-Feb-18 09:51 47.215848 -122.832290 199 2880ft 103kts
02-Feb-18 09:52 47.189204 -122.840094 199 2880ft 103kts
02-Feb-18 09:53 47.162519 -122.847939 199 2880ft 104kts
02-Feb-18 09:54 47.136409 -122.855632 198 2899ft 103kts
02-Feb-18 09:55 47.110862 -122.863108 198 2841ft 106kts
02-Feb-18 09:56 47.083532 -122.871073 196 2321ft 110kts
02-Feb-18 09:57 47.058975 -122.878226 196 1858ft 91kts
02-Feb-18 09:58 47.040127 -122.883749 195 1476ft 78kts
02-Feb-18 09:59 47.022223 -122.889123 195 1104ft 79kts
02-Feb-18 10:00 47.010367 -122.892706 192 889ft 71kts
02-Feb-18 10:01 46.999383 -122.895868 193 729ft 78kts
02-Feb-18 10:02 46.987977 -122.899219 193 448ft 69kts
02-Feb-18 10:03 46.976870 -122.902439 191 255ft 65kts
02-Feb-18 10:04 46.968187 -122.904986 191 213ft 39kts
02-Feb-18 10:05 46.968017 -122.908052 359 213ft 24kts
02-Feb-18 10:06 46.974861 -122.908010 359 213ft 14kts
02-Feb-18 10:07 46.975751 -122.909385 354 213ft 0kts
02-Feb-18 10:08 46.975751 -122.909385 354 213ft 0kts

Navigation Log

Ident Type
Flight plan parsing failed, navigation log unavailable